createdAt,value
2023-05-05T00:00:25.396Z,2179.00
2023-05-05T00:01:25.499Z,2191.00
2023-05-05T00:02:25.522Z,2189.00
2023-05-05T00:03:25.577Z,2177.00
2023-05-05T00:04:25.510Z,2123.00
2023-05-05T00:05:25.543Z,2123.00
2023-05-05T00:06:25.569Z,2109.00
2023-05-05T00:07:25.607Z,2086.00
2023-05-05T00:08:25.632Z,2113.00
2023-05-05T00:09:25.681Z,2127.00
2023-05-05T00:10:25.705Z,2124.00
2023-05-05T00:11:25.733Z,2150.00
2023-05-05T00:12:25.777Z,2127.00
2023-05-05T00:13:25.821Z,2175.00
2023-05-05T00:14:25.833Z,2152.00
2023-05-05T00:15:25.870Z,2146.00
2023-05-05T00:16:25.943Z,2156.00
2023-05-05T00:17:25.955Z,2151.00
2023-05-05T00:18:25.999Z,2186.00
2023-05-05T00:19:26.014Z,2210.00
2023-05-05T00:20:26.047Z,2330.00
2023-05-05T00:21:26.093Z,2385.00
2023-05-05T00:22:26.123Z,2383.00
2023-05-05T00:23:26.154Z,2352.00
2023-05-05T00:24:26.158Z,2329.00
2023-05-05T00:25:26.164Z,2326.00
2023-05-05T00:26:26.208Z,2324.00
2023-05-05T00:27:26.240Z,2308.00
2023-05-05T00:28:26.285Z,2337.00
2023-05-05T00:29:26.296Z,2339.00
2023-05-05T00:30:26.343Z,2327.00
2023-05-05T00:31:26.392Z,2335.00
2023-05-05T00:32:26.415Z,2312.00
2023-05-05T00:33:26.369Z,2294.00
2023-05-05T00:34:26.420Z,2301.00
2023-05-05T00:35:26.438Z,2350.00
2023-05-05T00:36:26.462Z,2348.00
2023-05-05T00:37:26.487Z,2343.00
2023-05-05T00:38:26.527Z,2313.00
2023-05-05T00:39:26.551Z,2329.00
2023-05-05T00:40:26.570Z,2298.00
2023-05-05T00:41:26.603Z,2294.00
2023-05-05T00:42:26.614Z,2276.00
2023-05-05T00:43:26.644Z,2253.00
2023-05-05T00:44:26.666Z,2237.00
2023-05-05T00:45:26.664Z,2222.00
2023-05-05T00:46:26.804Z,2197.00
2023-05-05T00:47:26.800Z,2231.00
2023-05-05T00:48:26.814Z,2244.00
2023-05-05T00:49:27.468Z,2313.00
2023-05-05T00:50:26.859Z,2352.00
2023-05-05T00:51:26.862Z,2349.00
2023-05-05T00:52:26.904Z,2360.00
2023-05-05T00:53:26.950Z,2354.00
2023-05-05T00:54:26.966Z,2329.00
2023-05-05T00:55:26.994Z,2337.00
2023-05-05T00:56:27.048Z,2376.00
2023-05-05T00:57:27.086Z,2455.00
2023-05-05T00:58:27.074Z,2525.00
2023-05-05T00:59:27.086Z,2519.00
2023-05-05T01:00:27.130Z,2505.00
2023-05-05T01:01:27.242Z,2493.00
2023-05-05T01:02:27.276Z,2513.00
2023-05-05T01:03:27.315Z,2521.00
2023-05-05T01:04:27.314Z,2487.00
2023-05-05T01:05:27.356Z,2482.00
2023-05-05T01:06:27.418Z,2429.00
2023-05-05T01:07:27.409Z,2410.00
2023-05-05T01:08:27.491Z,2399.00
2023-05-05T01:09:27.472Z,2381.00
2023-05-05T01:10:27.706Z,2396.00
2023-05-05T01:11:27.542Z,2411.00
2023-05-05T01:12:27.558Z,2450.00
2023-05-05T01:13:27.596Z,2439.00
2023-05-05T01:14:27.625Z,2425.00
2023-05-05T01:15:27.644Z,2387.00
2023-05-05T01:16:27.727Z,2329.00
2023-05-05T01:17:27.800Z,2298.00
2023-05-05T01:18:27.785Z,2266.00
2023-05-05T01:19:27.821Z,2280.00
2023-05-05T01:20:27.808Z,2325.00
2023-05-05T01:21:27.846Z,2365.00
2023-05-05T01:22:27.873Z,2473.00
2023-05-05T01:23:27.905Z,2522.00
2023-05-05T01:24:27.941Z,2504.00
2023-05-05T01:25:27.987Z,2476.00
2023-05-05T01:26:28.023Z,2378.00
2023-05-05T01:27:28.030Z,2334.00
2023-05-05T01:28:28.065Z,2299.00
2023-05-05T01:29:28.126Z,2281.00
2023-05-05T01:30:28.169Z,2265.00
2023-05-05T01:31:28.235Z,2246.00
2023-05-05T01:32:28.272Z,2270.00
2023-05-05T01:33:28.287Z,2294.00
2023-05-05T01:34:28.288Z,2347.00
2023-05-05T01:35:28.317Z,2346.00
2023-05-05T01:36:28.352Z,2374.00
2023-05-05T01:37:28.373Z,2379.00
2023-05-05T01:38:28.422Z,2361.00
2023-05-05T01:39:28.505Z,2373.00
2023-05-05T01:40:28.512Z,2394.00
2023-05-05T01:41:28.534Z,2358.00
2023-05-05T01:42:28.570Z,2407.00
2023-05-05T01:43:28.609Z,2390.00
2023-05-05T01:44:28.634Z,2403.00
2023-05-05T01:45:28.758Z,2415.00
2023-05-05T01:46:28.752Z,2458.00
2023-05-05T01:47:28.777Z,2516.00
2023-05-05T01:48:28.787Z,2595.00
2023-05-05T01:49:28.853Z,2601.00
2023-05-05T01:50:28.879Z,2617.00
2023-05-05T01:51:28.914Z,2594.00
2023-05-05T01:52:28.978Z,2568.00
2023-05-05T01:53:29.019Z,2540.00
2023-05-05T01:54:29.041Z,2562.00
2023-05-05T01:55:29.096Z,2557.00
2023-05-05T01:56:29.165Z,2566.00
2023-05-05T01:57:29.198Z,2571.00
2023-05-05T01:58:29.194Z,2563.00
2023-05-05T01:59:29.217Z,2574.00
2023-05-05T02:00:29.253Z,2589.00
2023-05-05T02:01:29.331Z,2613.00
2023-05-05T02:02:29.412Z,2600.00
2023-05-05T02:03:29.420Z,2602.00
2023-05-05T02:04:29.403Z,2600.00
2023-05-05T02:05:29.429Z,2553.00
2023-05-05T02:06:29.467Z,2491.00
2023-05-05T02:07:29.516Z,2446.00
2023-05-05T02:08:29.519Z,2462.00
2023-05-05T02:09:29.575Z,2506.00
2023-05-05T02:10:29.590Z,2545.00
2023-05-05T02:11:29.637Z,2601.00
2023-05-05T02:12:29.701Z,2601.00
2023-05-05T02:13:29.705Z,2620.00
2023-05-05T02:14:29.726Z,2624.00
2023-05-05T02:15:29.806Z,2626.00
2023-05-05T02:16:29.788Z,2612.00
2023-05-05T02:17:29.854Z,2614.00
2023-05-05T02:18:29.861Z,2633.00
2023-05-05T02:19:29.888Z,2609.00
2023-05-05T02:20:29.900Z,2604.00
2023-05-05T02:21:29.915Z,2585.00
2023-05-05T02:22:30.020Z,2568.00
2023-05-05T02:23:30.013Z,2560.00
2023-05-05T02:24:30.060Z,2536.00
2023-05-05T02:25:30.069Z,2565.00
2023-05-05T02:26:30.118Z,2552.00
2023-05-05T02:27:30.145Z,2582.00
2023-05-05T02:28:30.246Z,2556.00
2023-05-05T02:29:30.199Z,2515.00
2023-05-05T02:30:30.264Z,2513.00
2023-05-05T02:31:30.329Z,2545.00
2023-05-05T02:32:30.443Z,2613.00
2023-05-05T02:33:30.376Z,2672.00
2023-05-05T02:34:30.411Z,2689.00
2023-05-05T02:35:30.440Z,2645.00
2023-05-05T02:36:30.502Z,2587.00
2023-05-05T02:37:30.520Z,2566.00
2023-05-05T02:38:30.571Z,2527.00
2023-05-05T02:39:30.614Z,2460.00
2023-05-05T02:40:30.629Z,2411.00
2023-05-05T02:41:30.675Z,2391.00
2023-05-05T02:42:30.739Z,2377.00
2023-05-05T02:43:30.760Z,2466.00
2023-05-05T02:44:30.781Z,2597.00
2023-05-05T02:45:30.819Z,2640.00
2023-05-05T02:46:30.910Z,2629.00
2023-05-05T02:47:30.905Z,2591.00
2023-05-05T02:48:30.936Z,2597.00
2023-05-05T02:49:31.051Z,2581.00
2023-05-05T02:50:30.993Z,2569.00
2023-05-05T02:51:31.014Z,2612.00
2023-05-05T02:52:31.052Z,2592.00
2023-05-05T02:53:31.086Z,2590.00
2023-05-05T02:54:31.072Z,2595.00
2023-05-05T02:55:31.120Z,2600.00
2023-05-05T02:56:31.158Z,2600.00
2023-05-05T02:57:31.212Z,2628.00
2023-05-05T02:58:31.255Z,2622.00
2023-05-05T02:59:31.304Z,2630.00
2023-05-05T03:00:31.336Z,2612.00
2023-05-05T03:01:31.404Z,2603.00
2023-05-05T03:02:31.517Z,2590.00
2023-05-05T03:03:31.518Z,2588.00
2023-05-05T03:04:31.484Z,2555.00
2023-05-05T03:05:31.516Z,2520.00
2023-05-05T03:06:31.529Z,2505.00
2023-05-05T03:07:31.560Z,2502.00
2023-05-05T03:08:31.614Z,2463.00
2023-05-05T03:09:31.661Z,2461.00
2023-05-05T03:10:31.714Z,2509.00
2023-05-05T03:11:31.710Z,2568.00
2023-05-05T03:12:31.789Z,2589.00
2023-05-05T03:13:31.803Z,2572.00
2023-05-05T03:14:33.438Z,2593.00
2023-05-05T03:15:31.867Z,2561.00
2023-05-05T03:16:31.935Z,2498.00
2023-05-05T03:17:31.996Z,2398.00
2023-05-05T03:18:32.066Z,2332.00
2023-05-05T03:19:32.112Z,2266.00
2023-05-05T03:20:32.018Z,2280.00
2023-05-05T03:21:32.126Z,2254.00
2023-05-05T03:22:32.173Z,2299.00
2023-05-05T03:23:32.175Z,2336.00
2023-05-05T03:24:32.150Z,2385.00
2023-05-05T03:25:32.190Z,2392.00
2023-05-05T03:26:32.217Z,2460.00
2023-05-05T03:27:32.238Z,2558.00
2023-05-05T03:28:32.245Z,2603.00
2023-05-05T03:29:32.303Z,2608.00
2023-05-05T03:30:32.326Z,2607.00
2023-05-05T03:31:32.543Z,2602.00
2023-05-05T03:32:32.451Z,2598.00
2023-05-05T03:33:32.424Z,2616.00
2023-05-05T03:34:32.419Z,2618.00
2023-05-05T03:35:32.470Z,2602.00
2023-05-05T03:36:32.476Z,2614.00
2023-05-05T03:37:32.497Z,2616.00
2023-05-05T03:38:32.541Z,2656.00
2023-05-05T03:39:32.569Z,2688.00
2023-05-05T03:40:42.956Z,2722.00
2023-05-05T03:41:33.601Z,2724.00
2023-05-05T03:42:32.597Z,2735.00
2023-05-05T03:43:32.577Z,2753.00
2023-05-05T03:44:32.585Z,2784.00
2023-05-05T03:45:32.577Z,2829.00
2023-05-05T03:46:32.548Z,2827.00
2023-05-05T03:47:32.593Z,2813.00
2023-05-05T03:48:32.557Z,2734.00
2023-05-05T03:49:32.546Z,2703.00
2023-05-05T03:50:32.522Z,2633.00
2023-05-05T03:51:32.534Z,2591.00
2023-05-05T03:52:32.523Z,2582.00
2023-05-05T03:53:32.562Z,2631.00
2023-05-05T03:54:32.571Z,2665.00
2023-05-05T03:55:32.631Z,2662.00
2023-05-05T03:56:32.662Z,2661.00
2023-05-05T03:57:32.716Z,2659.00
2023-05-05T03:58:32.759Z,2692.00
2023-05-05T03:59:32.780Z,2707.00
2023-05-05T04:00:32.822Z,2721.00
2023-05-05T04:01:32.825Z,2712.00
2023-05-05T04:02:32.983Z,2692.00
2023-05-05T04:03:32.985Z,2679.00
2023-05-05T04:04:32.988Z,2665.00
2023-05-05T04:05:33.002Z,2688.00
2023-05-05T04:06:32.993Z,2652.00
2023-05-05T04:07:33.033Z,2638.00
2023-05-05T04:08:33.106Z,2585.00
2023-05-05T04:09:33.135Z,2553.00
2023-05-05T04:10:33.164Z,2520.00
2023-05-05T04:11:33.236Z,2494.00
2023-05-05T04:12:33.307Z,2469.00
2023-05-05T04:13:33.328Z,2454.00
2023-05-05T04:14:33.373Z,2461.00
2023-05-05T04:15:33.398Z,2468.00
2023-05-05T04:16:33.526Z,2484.00
2023-05-05T04:17:33.546Z,2556.00
2023-05-05T04:18:33.579Z,2665.00
2023-05-05T04:19:33.597Z,2717.00
2023-05-05T04:20:33.628Z,2746.00
2023-05-05T04:21:33.681Z,2731.00
2023-05-05T04:22:33.715Z,2736.00
2023-05-05T04:23:33.799Z,2708.00
2023-05-05T04:24:33.830Z,2658.00
2023-05-05T04:25:33.868Z,2545.00
2023-05-05T04:26:33.898Z,2481.00
2023-05-05T04:27:33.944Z,2412.00
2023-05-05T04:28:33.986Z,2355.00
2023-05-05T04:29:33.998Z,2352.00
2023-05-05T04:30:34.019Z,2371.00
2023-05-05T04:31:34.143Z,2346.00
2023-05-05T04:32:34.150Z,2332.00
2023-05-05T04:33:34.128Z,2309.00
2023-05-05T04:34:34.174Z,2281.00
2023-05-05T04:35:34.179Z,2255.00
2023-05-05T04:36:34.211Z,2255.00
2023-05-05T04:37:34.257Z,2213.00
2023-05-05T04:38:34.393Z,2208.00
2023-05-05T04:39:34.354Z,2212.00
2023-05-05T04:40:34.396Z,2258.00
2023-05-05T04:41:34.412Z,2272.00
2023-05-05T04:42:34.428Z,2294.00
2023-05-05T04:43:34.459Z,2308.00
2023-05-05T04:44:34.500Z,2326.00
2023-05-05T04:45:34.516Z,2359.00
2023-05-05T04:46:34.597Z,2338.00
2023-05-05T04:47:34.623Z,2344.00
2023-05-05T04:48:34.640Z,2297.00
2023-05-05T04:49:34.755Z,2303.00
2023-05-05T04:50:34.710Z,2301.00
2023-05-05T04:51:34.767Z,2278.00
2023-05-05T04:52:34.790Z,2259.00
2023-05-05T04:53:34.807Z,2258.00
2023-05-05T04:54:34.831Z,2217.00
2023-05-05T04:55:34.857Z,2224.00
2023-05-05T04:56:34.870Z,2203.00
2023-05-05T04:57:34.908Z,2191.00
2023-05-05T04:58:34.944Z,2197.00
2023-05-05T04:59:34.970Z,2241.00
2023-05-05T05:00:34.994Z,2298.00
2023-05-05T05:01:37.668Z,2298.00
2023-05-05T05:02:35.072Z,2346.00
2023-05-05T05:03:35.151Z,2364.00
2023-05-05T05:04:34.997Z,2376.00
2023-05-05T05:05:34.993Z,2400.00
2023-05-05T05:06:34.975Z,2396.00
2023-05-05T05:07:34.975Z,2411.00
2023-05-05T05:08:34.973Z,2437.00
2023-05-05T05:09:34.983Z,2453.00
2023-05-05T05:10:34.960Z,2487.00
2023-05-05T05:11:34.951Z,2534.00
2023-05-05T05:12:34.964Z,2579.00
2023-05-05T05:13:34.929Z,2596.00
2023-05-05T05:14:34.914Z,2606.00
2023-05-05T05:15:34.913Z,2614.00
2023-05-05T05:16:34.930Z,2615.00
2023-05-05T05:17:34.928Z,2666.00
2023-05-05T05:18:34.911Z,2688.00
2023-05-05T05:19:34.888Z,2724.00
2023-05-05T05:20:34.884Z,2757.00
2023-05-05T05:21:34.867Z,2785.00
2023-05-05T05:22:34.879Z,2788.00
2023-05-05T05:23:34.872Z,2840.00
2023-05-05T05:24:34.854Z,2854.00
2023-05-05T05:25:34.853Z,2858.00
2023-05-05T05:26:35.072Z,2801.00
2023-05-05T05:27:34.824Z,2815.00
2023-05-05T05:28:34.815Z,2839.00
2023-05-05T05:29:34.839Z,2849.00
2023-05-05T05:30:34.798Z,2884.00
2023-05-05T05:31:34.870Z,2902.00
2023-05-05T05:32:34.829Z,2932.00
2023-05-05T05:33:35.055Z,3030.00
2023-05-05T05:34:34.788Z,3052.00
2023-05-05T05:35:34.788Z,3099.00
2023-05-05T05:36:34.782Z,3234.00
2023-05-05T05:37:34.766Z,3259.00
2023-05-05T05:38:34.768Z,3310.00
2023-05-05T05:39:34.766Z,3336.00
2023-05-05T05:40:34.744Z,3359.00
2023-05-05T05:41:34.738Z,3411.00
2023-05-05T05:42:34.725Z,3452.00
2023-05-05T05:43:35.054Z,3508.00
2023-05-05T05:44:34.736Z,3534.00
2023-05-05T05:45:34.698Z,3589.00
2023-05-05T05:46:34.952Z,3625.00
2023-05-05T05:47:34.767Z,3698.00
2023-05-05T05:48:34.708Z,3695.00
2023-05-05T05:49:34.684Z,3737.00
2023-05-05T05:50:34.685Z,3762.00
2023-05-05T05:51:34.715Z,3801.00
2023-05-05T05:52:34.762Z,3829.00
2023-05-05T05:53:34.814Z,3876.00
2023-05-05T05:54:34.857Z,3768.00
2023-05-05T05:55:34.893Z,3823.00
2023-05-05T05:56:34.932Z,3871.00
2023-05-05T05:57:34.971Z,3840.00
2023-05-05T05:58:35.026Z,3854.00
2023-05-05T05:59:35.055Z,3892.00
2023-05-05T06:00:35.086Z,3909.00
2023-05-05T06:01:35.138Z,3928.00
2023-05-05T06:02:35.247Z,3930.00
2023-05-05T06:03:35.386Z,3944.00
2023-05-05T06:04:35.276Z,3946.00
2023-05-05T06:05:35.291Z,3917.00
2023-05-05T06:06:35.325Z,3934.00
2023-05-05T06:07:35.417Z,3903.00
2023-05-05T06:08:35.693Z,3934.00
2023-05-05T06:09:35.443Z,3943.00
2023-05-05T06:10:35.633Z,3954.00
2023-05-05T06:11:35.519Z,3967.00
2023-05-05T06:12:35.584Z,3960.00
2023-05-05T06:13:35.596Z,3977.00
2023-05-05T06:14:35.633Z,3979.00
2023-05-05T06:15:35.703Z,3975.00
2023-05-05T06:16:35.711Z,3975.00
2023-05-05T06:17:35.790Z,3936.00
2023-05-05T06:18:36.065Z,3883.00
2023-05-05T06:19:35.807Z,3860.00
2023-05-05T06:20:35.837Z,3866.00
2023-05-05T06:21:35.845Z,3851.00
2023-05-05T06:22:35.900Z,3836.00
2023-05-05T06:23:35.951Z,3841.00
2023-05-05T06:24:35.977Z,3858.00
2023-05-05T06:25:36.031Z,3847.00
2023-05-05T06:26:36.051Z,3837.00
2023-05-05T06:27:36.078Z,3829.00
2023-05-05T06:28:36.089Z,3778.00
2023-05-05T06:29:36.080Z,3769.00
2023-05-05T06:30:36.144Z,3770.00
2023-05-05T06:31:36.591Z,3762.00
2023-05-05T06:32:36.264Z,3726.00
2023-05-05T06:33:36.225Z,3641.00
2023-05-05T06:34:36.276Z,3530.00
2023-05-05T06:35:36.316Z,3472.00
2023-05-05T06:36:36.413Z,3416.00
2023-05-05T06:37:36.394Z,3340.00
2023-05-05T06:38:36.430Z,3129.00
2023-05-05T06:39:36.436Z,3090.00
2023-05-05T06:40:36.491Z,2992.00
2023-05-05T06:41:36.510Z,2991.00
2023-05-05T06:42:36.537Z,2962.00
2023-05-05T06:43:37.083Z,2997.00
2023-05-05T06:44:36.629Z,3095.00
2023-05-05T06:45:36.663Z,3066.00
2023-05-05T06:46:37.117Z,3066.00
2023-05-05T06:47:36.727Z,3036.00
2023-05-05T06:48:36.775Z,3005.00
2023-05-05T06:49:36.800Z,2944.00
2023-05-05T06:50:36.835Z,3013.00
2023-05-05T06:51:36.877Z,3057.00
2023-05-05T06:52:36.916Z,3037.00
2023-05-05T06:53:37.080Z,3093.00
2023-05-05T06:54:37.017Z,3134.00
2023-05-05T06:55:37.055Z,3084.00
2023-05-05T06:56:37.110Z,3134.00
2023-05-05T06:57:37.224Z,3162.00
2023-05-05T06:58:37.206Z,3163.00
2023-05-05T06:59:37.204Z,3157.00
2023-05-05T07:00:37.294Z,3144.00
2023-05-05T07:01:37.301Z,3175.00
2023-05-05T07:02:37.367Z,3202.00
2023-05-05T07:03:37.377Z,3223.00
2023-05-05T07:04:37.366Z,3225.00
2023-05-05T07:05:37.403Z,3248.00
2023-05-05T07:06:37.424Z,3264.00
2023-05-05T07:07:37.401Z,3278.00
2023-05-05T07:08:37.618Z,3279.00
2023-05-05T07:09:37.459Z,3315.00
2023-05-05T07:10:37.418Z,3364.00
2023-05-05T07:11:37.637Z,3408.00
2023-05-05T07:12:37.557Z,3434.00
2023-05-05T07:13:37.644Z,3456.00
2023-05-05T07:14:37.591Z,3466.00
2023-05-05T07:15:37.586Z,3471.00
2023-05-05T07:16:37.697Z,3469.00
2023-05-05T07:17:37.631Z,3471.00
2023-05-05T07:18:37.630Z,3471.00
2023-05-05T07:19:37.677Z,3482.00
2023-05-05T07:20:37.753Z,3488.00
2023-05-05T07:21:37.765Z,3484.00
2023-05-05T07:22:37.784Z,3479.00
2023-05-05T07:23:37.842Z,3492.00
2023-05-05T07:24:37.826Z,3502.00
2023-05-05T07:25:37.878Z,3508.00
2023-05-05T07:26:37.889Z,3472.00
2023-05-05T07:27:37.899Z,3289.00
2023-05-05T07:28:38.117Z,3062.00
2023-05-05T07:29:38.095Z,3011.00
2023-05-05T07:30:38.156Z,2962.00
2023-05-05T07:31:38.153Z,2723.00
2023-05-05T07:32:38.114Z,2747.00
2023-05-05T07:33:38.065Z,2785.00
2023-05-05T07:34:38.159Z,2799.00
2023-05-05T07:35:38.127Z,2838.00
2023-05-05T07:36:38.169Z,2903.00
2023-05-05T07:37:38.197Z,2924.00
2023-05-05T07:38:38.209Z,2961.00
2023-05-05T07:39:38.228Z,2944.00
2023-05-05T07:40:38.266Z,2993.00
2023-05-05T07:41:38.341Z,2996.00
2023-05-05T07:42:38.344Z,2995.00
2023-05-05T07:43:39.425Z,2960.00
2023-05-05T07:44:38.431Z,2934.00
2023-05-05T07:45:38.817Z,2928.00
2023-05-05T07:46:38.532Z,2874.00
2023-05-05T07:47:38.565Z,2873.00
2023-05-05T07:48:38.618Z,2875.00
2023-05-05T07:49:38.603Z,2849.00
2023-05-05T07:50:38.627Z,2839.00
2023-05-05T07:51:38.671Z,2831.00
2023-05-05T07:53:40.123Z,2856.00
2023-05-05T07:54:38.689Z,2878.00
2023-05-05T07:55:38.663Z,2903.00
2023-05-05T07:56:38.671Z,2976.00
2023-05-05T07:57:38.649Z,3102.00
2023-05-05T07:58:38.641Z,3124.00
2023-05-05T07:59:39.605Z,3060.00
2023-05-05T08:00:38.630Z,2997.00
2023-05-05T08:01:38.688Z,2955.00
2023-05-05T08:02:38.729Z,2945.00
2023-05-05T08:03:38.842Z,2933.00
2023-05-05T08:04:38.661Z,2931.00
2023-05-05T08:05:38.618Z,2934.00
2023-05-05T08:06:38.585Z,2921.00
2023-05-05T08:07:38.593Z,2916.00
2023-05-05T08:08:38.622Z,2916.00
2023-05-05T08:09:39.125Z,2884.00
2023-05-05T08:10:38.661Z,2880.00
2023-05-05T08:11:38.700Z,2824.00
2023-05-05T08:12:38.783Z,2995.00
2023-05-05T08:13:38.796Z,2985.00
2023-05-05T08:14:38.812Z,2399.00
2023-05-05T08:15:38.896Z,2185.00
2023-05-05T08:16:38.897Z,2009.00
2023-05-05T08:17:39.175Z,1728.00
2023-05-05T08:18:38.985Z,1525.00
2023-05-05T08:19:39.151Z,1478.00
2023-05-05T08:20:39.073Z,1430.00
2023-05-05T08:21:39.130Z,1447.00
2023-05-05T08:22:39.116Z,1635.00
2023-05-05T08:23:39.503Z,1733.00
2023-05-05T08:24:39.162Z,1906.00
2023-05-05T08:25:39.191Z,2006.00
2023-05-05T08:26:39.199Z,2177.00
2023-05-05T08:27:39.266Z,2293.00
2023-05-05T08:28:39.276Z,2394.00
2023-05-05T08:29:39.308Z,2455.00
2023-05-05T08:30:39.355Z,2427.00
2023-05-05T08:31:39.402Z,2448.00
2023-05-05T08:32:39.441Z,2387.00
2023-05-05T08:33:39.521Z,2327.00
2023-05-05T08:34:39.465Z,2295.00
2023-05-05T08:35:39.526Z,2273.00
2023-05-05T08:36:39.533Z,2325.00
2023-05-05T08:37:39.583Z,2322.00
2023-05-05T08:38:39.617Z,2345.00
2023-05-05T08:39:39.666Z,2449.00
2023-05-05T08:40:39.671Z,2542.00
2023-05-05T08:41:39.707Z,2603.00
2023-05-05T08:42:40.167Z,2632.00
2023-05-05T08:43:39.764Z,2657.00
2023-05-05T08:44:39.820Z,2701.00
2023-05-05T08:45:39.823Z,2705.00
2023-05-05T08:46:39.845Z,2741.00
2023-05-05T08:47:40.288Z,2763.00
2023-05-05T08:48:39.836Z,2799.00
2023-05-05T08:49:39.956Z,2878.00
2023-05-05T08:50:39.916Z,2878.00
2023-05-05T08:51:39.975Z,2869.00
2023-05-05T08:52:40.074Z,2853.00
2023-05-05T08:53:40.047Z,2840.00
2023-05-05T08:54:40.123Z,2847.00
2023-05-05T08:55:40.094Z,2848.00
2023-05-05T08:56:40.137Z,2879.00
2023-05-05T08:57:40.185Z,2871.00
2023-05-05T08:58:40.245Z,2859.00
2023-05-05T08:59:40.292Z,2891.00
2023-05-05T09:00:40.332Z,2902.00
2023-05-05T09:01:40.327Z,2921.00
2023-05-05T09:02:40.451Z,2946.00
2023-05-05T09:03:40.419Z,2934.00
2023-05-05T09:04:40.481Z,2922.00
2023-05-05T09:05:40.599Z,2937.00
2023-05-05T09:06:40.549Z,2909.00
2023-05-05T09:07:40.612Z,2917.00
2023-05-05T09:08:40.619Z,2958.00
2023-05-05T09:09:40.642Z,2981.00
2023-05-05T09:10:40.686Z,2977.00
2023-05-05T09:11:40.674Z,3013.00
2023-05-05T09:12:40.780Z,3054.00
2023-05-05T09:13:40.703Z,3063.00
2023-05-05T09:14:40.696Z,3086.00
2023-05-05T09:15:40.764Z,3113.00
2023-05-05T09:16:40.837Z,3159.00
2023-05-05T09:17:40.877Z,3168.00
2023-05-05T09:18:40.859Z,3142.00
2023-05-05T09:19:40.875Z,3127.00
2023-05-05T09:20:40.930Z,3124.00
2023-05-05T09:21:41.015Z,3112.00
2023-05-05T09:22:40.961Z,3068.00
2023-05-05T09:23:41.025Z,3054.00
2023-05-05T09:24:41.002Z,3059.00
2023-05-05T09:25:41.237Z,3103.00
2023-05-05T09:26:41.098Z,3013.00
2023-05-05T09:27:41.132Z,2887.00
2023-05-05T09:28:41.283Z,2868.00
2023-05-05T09:29:41.219Z,2865.00
2023-05-05T09:30:41.214Z,2583.00
2023-05-05T09:31:41.197Z,2593.00
2023-05-05T09:32:41.689Z,2735.00
2023-05-05T09:33:41.264Z,2188.00
2023-05-05T09:34:41.331Z,1712.00
2023-05-05T09:35:41.334Z,1403.00
2023-05-05T09:36:41.398Z,1252.00
2023-05-05T09:37:41.517Z,1102.00
2023-05-05T09:38:41.449Z,842.00
2023-05-05T09:39:41.497Z,749.00
2023-05-05T09:40:41.561Z,629.00
2023-05-05T09:41:41.589Z,560.00
2023-05-05T09:42:41.594Z,633.00
2023-05-05T09:43:41.611Z,617.00
2023-05-05T09:44:41.616Z,557.00
2023-05-05T09:45:41.650Z,624.00
2023-05-05T09:46:41.742Z,759.00
2023-05-05T09:47:41.739Z,855.00
2023-05-05T09:48:41.780Z,860.00
2023-05-05T09:49:41.816Z,845.00
2023-05-05T09:50:41.854Z,699.00
2023-05-05T09:51:41.886Z,658.00
2023-05-05T09:52:41.927Z,810.00
2023-05-05T09:53:42.005Z,950.00
2023-05-05T09:54:42.007Z,994.00
2023-05-05T09:55:42.026Z,707.00
2023-05-05T09:56:42.054Z,660.00
2023-05-05T09:57:42.068Z,587.00
2023-05-05T09:58:42.196Z,495.00
2023-05-05T09:59:42.103Z,514.00
2023-05-05T10:00:42.112Z,536.00
2023-05-05T10:01:42.152Z,527.00
2023-05-05T10:02:42.238Z,500.00
2023-05-05T10:03:42.208Z,613.00
2023-05-05T10:04:42.680Z,849.00
2023-05-05T10:05:42.525Z,883.00
2023-05-05T10:06:42.289Z,1003.00
2023-05-05T10:07:42.315Z,788.00
2023-05-05T10:08:42.344Z,748.00
2023-05-05T10:09:42.438Z,707.00
2023-05-05T10:10:42.415Z,758.00
2023-05-05T10:11:42.394Z,939.00
2023-05-05T10:12:42.460Z,1041.00
2023-05-05T10:13:42.416Z,631.00
2023-05-05T10:14:42.435Z,520.00
2023-05-05T10:15:42.466Z,525.00
2023-05-05T10:16:42.634Z,569.00
2023-05-05T10:17:47.890Z,657.00
2023-05-05T10:18:43.548Z,659.00
2023-05-05T10:19:42.521Z,685.00
2023-05-05T10:20:42.496Z,781.00
2023-05-05T10:21:42.632Z,731.00
2023-05-05T10:22:42.507Z,580.00
2023-05-05T10:23:42.466Z,550.00
2023-05-05T10:24:42.464Z,500.00
2023-05-05T10:25:42.976Z,543.00
2023-05-05T10:26:42.478Z,605.00
2023-05-05T10:27:42.480Z,637.00
2023-05-05T10:28:42.446Z,571.00
2023-05-05T10:29:42.601Z,498.00
2023-05-05T10:30:42.421Z,508.00
2023-05-05T10:31:42.485Z,599.00
2023-05-05T10:33:42.796Z,898.00
2023-05-05T10:34:42.485Z,1086.00
2023-05-05T10:35:42.521Z,1310.00
2023-05-05T10:36:42.452Z,1464.00
2023-05-05T10:37:42.492Z,1537.00
2023-05-05T10:38:42.455Z,1582.00
2023-05-05T10:39:42.466Z,1688.00
2023-05-05T10:40:42.444Z,1790.00
2023-05-05T10:41:42.477Z,1973.00
2023-05-05T10:42:42.428Z,2042.00
2023-05-05T10:43:42.404Z,2114.00
2023-05-05T10:44:42.429Z,2197.00
2023-05-05T10:45:42.537Z,2291.00
2023-05-05T10:46:42.549Z,2361.00
2023-05-05T10:47:42.430Z,2452.00
2023-05-05T10:48:42.443Z,2540.00
2023-05-05T10:49:42.389Z,2660.00
2023-05-05T10:50:42.379Z,2738.00
2023-05-05T10:51:42.342Z,2784.00
2023-05-05T10:52:42.356Z,2736.00
2023-05-05T10:53:42.435Z,2719.00
2023-05-05T10:54:42.348Z,2735.00
2023-05-05T10:55:42.369Z,2828.00
2023-05-05T10:56:42.352Z,2940.00
2023-05-05T10:57:42.455Z,3043.00
2023-05-05T10:58:58.469Z,3123.00
2023-05-05T10:59:43.705Z,3126.00
2023-05-05T11:00:42.302Z,3134.00
2023-05-05T11:01:42.332Z,3167.00
2023-05-05T11:02:42.307Z,3202.00
2023-05-05T11:03:42.322Z,3238.00
2023-05-05T11:04:42.275Z,3271.00
2023-05-05T11:05:42.263Z,3288.00
2023-05-05T11:06:42.263Z,3312.00
2023-05-05T11:07:42.252Z,3320.00
2023-05-05T11:08:42.247Z,3248.00
2023-05-05T11:09:42.724Z,3198.00
2023-05-05T11:10:42.288Z,3159.00
2023-05-05T11:11:42.368Z,3104.00
2023-05-05T11:12:42.409Z,3060.00
2023-05-05T11:13:42.470Z,2936.00
2023-05-05T11:14:42.696Z,2929.00
2023-05-05T11:15:42.464Z,2544.00
2023-05-05T11:16:42.586Z,2470.00
2023-05-05T11:17:42.479Z,2596.00
2023-05-05T11:18:42.516Z,2511.00
2023-05-05T11:19:42.706Z,2314.00
2023-05-05T11:20:42.552Z,2119.00
2023-05-05T11:21:42.576Z,2183.00
2023-05-05T11:22:42.634Z,2258.00
2023-05-05T11:23:42.679Z,2212.00
2023-05-05T11:24:42.731Z,2247.00
2023-05-05T11:25:42.797Z,2042.00
2023-05-05T11:26:42.824Z,1946.00
2023-05-05T11:27:42.856Z,1784.00
2023-05-05T11:28:42.893Z,1825.00
2023-05-05T11:29:42.980Z,1824.00
2023-05-05T11:30:42.981Z,1970.00
2023-05-05T11:31:42.988Z,2035.00
2023-05-05T11:32:43.047Z,1974.00
2023-05-05T11:33:43.029Z,1978.00
2023-05-05T11:34:43.087Z,1999.00
2023-05-05T11:35:43.093Z,1964.00
2023-05-05T11:36:43.126Z,1946.00
2023-05-05T11:37:43.152Z,1932.00
2023-05-05T11:38:43.223Z,1867.00
2023-05-05T11:39:43.226Z,1885.00
2023-05-05T11:40:43.271Z,1908.00
2023-05-05T11:41:43.310Z,1912.00
2023-05-05T11:42:43.384Z,1900.00
2023-05-05T11:43:43.413Z,1902.00
2023-05-05T11:44:43.454Z,1912.00
2023-05-05T11:45:43.511Z,1930.00
2023-05-05T11:46:43.570Z,1881.00
2023-05-05T11:47:43.593Z,1870.00
2023-05-05T11:48:43.581Z,1898.00
2023-05-05T11:49:43.612Z,1904.00
2023-05-05T11:50:43.670Z,1975.00
2023-05-05T11:51:43.708Z,2013.00
2023-05-05T11:52:43.725Z,1958.00
2023-05-05T11:53:43.801Z,1964.00
2023-05-05T11:54:43.834Z,1899.00
2023-05-05T11:55:43.870Z,1993.00
2023-05-05T11:56:43.918Z,1936.00
2023-05-05T11:57:43.907Z,1955.00
2023-05-05T11:58:43.920Z,1963.00
2023-05-05T11:59:43.942Z,1998.00
2023-05-05T12:00:43.961Z,1959.00
2023-05-05T12:01:44.020Z,1896.00
2023-05-05T12:02:44.046Z,1923.00
2023-05-05T12:03:44.078Z,1920.00
2023-05-05T12:04:44.014Z,1875.00
2023-05-05T12:05:43.975Z,1919.00
2023-05-05T12:06:43.998Z,1886.00
2023-05-05T12:07:43.996Z,1807.00
2023-05-05T12:08:44.077Z,1843.00
2023-05-05T12:09:44.038Z,1956.00